Time;durP1;ratioP1;P1;durP2;ratioP2;P2;SDS_P1;SDS_P2;PMS_P1;PMS_P2;Temp;Humidity;BMP_temperature;BMP_pressure;BME280_temperature;BME280_humidity;BME280_pressure;Samples;Min_cycle;Max_cycle;Signal;HPM_P1;HPM_P2
2021/10/23 00:02:10;;;;;;;13.77;2.00;;;;;;;;;;4933351;29;20134;-64
2021/10/23 00:04:55;;;;;;;15.77;2.50;;;;;;;;;;4933399;29;20056;-65
2021/10/23 00:07:40;;;;;;;11.98;1.98;;;;;;;;;;4933306;29;20056;-65
2021/10/23 00:10:26;;;;;;;11.07;1.73;;;;;;;;;;4933723;29;20055;-64
2021/10/23 00:13:11;;;;;;;18.80;2.35;;;;;;;;;;4933632;29;20059;-65
2021/10/23 00:15:56;;;;;;;9.73;1.58;;;;;;;;;;4933455;29;20424;-65
2021/10/23 00:18:42;;;;;;;6.13;1.70;;;;;;;;;;4933448;29;20517;-64
2021/10/23 00:21:27;;;;;;;9.63;1.75;;;;;;;;;;4933383;29;20130;-64
2021/10/23 00:24:12;;;;;;;11.43;2.10;;;;;;;;;;4933138;29;20522;-65
2021/10/23 00:26:58;;;;;;;12.52;1.88;;;;;;;;;;4933472;29;20083;-64
2021/10/23 00:29:43;;;;;;;15.07;2.00;;;;;;;;;;4933337;29;20079;-64
2021/10/23 00:32:28;;;;;;;13.25;2.53;;;;;;;;;;4933293;29;20486;-64
2021/10/23 00:35:14;;;;;;;6.38;1.33;;;;;;;;;;4933131;29;20060;-65
2021/10/23 00:38:01;;;;;;;11.73;1.75;;;;;;;;;;4933238;29;20059;-65
2021/10/23 00:40:46;;;;;;;12.50;1.33;;;;;;;;;;4932948;29;20505;-64
2021/10/23 00:43:31;;;;;;;13.73;2.58;;;;;;;;;;4933002;29;20051;-65
2021/10/23 00:46:17;;;;;;;10.55;2.50;;;;;;;;;;4932382;29;20286;-64
2021/10/23 00:49:02;;;;;;;9.95;1.40;;;;;;;;;;4933032;29;20052;-64
2021/10/23 00:51:48;;;;;;;17.05;1.95;;;;;;;;;;4933185;29;20126;-64
2021/10/23 00:54:33;;;;;;;7.10;2.83;;;;;;;;;;4932641;29;20131;-64
2021/10/23 00:57:18;;;;;;;10.80;2.13;;;;;;;;;;4932862;29;20055;-64
2021/10/23 01:00:04;;;;;;;11.60;1.40;;;;;;;;;;4933062;29;20059;-65
2021/10/23 01:02:49;;;;;;;6.72;0.95;;;;;;;;;;4932958;29;20051;-64
2021/10/23 01:05:34;;;;;;;13.82;2.42;;;;;;;;;;4932494;29;20122;-64
2021/10/23 01:08:20;;;;;;;7.68;1.33;;;;;;;;;;4931648;29;20052;-65
2021/10/23 01:11:05;;;;;;;11.43;1.08;;;;;;;;;;4918203;29;20127;-64
2021/10/23 01:13:50;;;;;;;13.13;1.33;;;;;;;;;;4932473;29;20087;-64
2021/10/23 01:16:35;;;;;;;8.57;1.20;;;;;;;;;;4932718;29;20056;-64
2021/10/23 01:19:21;;;;;;;10.30;1.67;;;;;;;;;;4931682;29;20048;-65
2021/10/23 01:22:06;;;;;;;7.40;1.77;;;;;;;;;;4932475;29;20417;-65
2021/10/23 01:24:51;;;;;;;7.57;1.30;;;;;;;;;;4932438;29;20051;-64
2021/10/23 01:27:37;;;;;;;10.23;2.00;;;;;;;;;;4932521;29;20059;-64
2021/10/23 01:30:23;;;;;;;8.25;1.10;;;;;;;;;;4932484;29;20193;-65
2021/10/23 01:33:08;;;;;;;11.95;1.50;;;;;;;;;;4932319;29;20490;-65
2021/10/23 01:35:54;;;;;;;14.63;1.23;;;;;;;;;;4932368;29;20056;-64
2021/10/23 01:38:39;;;;;;;9.43;1.48;;;;;;;;;;4932379;29;20048;-64
2021/10/23 01:41:24;;;;;;;13.00;1.40;;;;;;;;;;4932137;29;20402;-65
2021/10/23 01:44:10;;;;;;;7.82;1.90;;;;;;;;;;4932202;29;20048;-64
2021/10/23 01:46:55;;;;;;;10.75;2.00;;;;;;;;;;4932245;29;20055;-64
2021/10/23 01:49:40;;;;;;;11.32;1.92;;;;;;;;;;4932050;29;20059;-65
2021/10/23 01:52:26;;;;;;;8.38;1.67;;;;;;;;;;4932172;29;20498;-64
2021/10/23 01:55:12;;;;;;;7.55;1.08;;;;;;;;;;4931953;29;20130;-65
2021/10/23 01:57:57;;;;;;;9.82;1.30;;;;;;;;;;4931973;29;20059;-64
2021/10/23 02:00:42;;;;;;;8.70;1.48;;;;;;;;;;4932140;29;20059;-64
2021/10/23 02:03:27;;;;;;;7.95;1.20;;;;;;;;;;4931856;29;20414;-65
2021/10/23 02:06:13;;;;;;;14.68;1.88;;;;;;;;;;4931748;29;20526;-66
2021/10/23 02:08:58;;;;;;;8.95;1.52;;;;;;;;;;4932126;29;20434;-65
2021/10/23 02:11:43;;;;;;;9.85;1.10;;;;;;;;;;4932029;29;20048;-64
2021/10/23 02:14:29;;;;;;;7.38;1.30;;;;;;;;;;4931742;29;20056;-64
2021/10/23 02:17:14;;;;;;;7.13;1.48;;;;;;;;;;4931941;29;20127;-64
2021/10/23 02:19:59;;;;;;;9.50;1.60;;;;;;;;;;4931957;29;20060;-65
2021/10/23 02:22:45;;;;;;;9.43;1.60;;;;;;;;;;4931736;29;20048;-65
2021/10/23 02:25:30;;;;;;;14.93;1.88;;;;;;;;;;4931500;29;20052;-64
2021/10/23 02:28:15;;;;;;;5.45;1.02;;;;;;;;;;4931809;29;20052;-65
2021/10/23 02:31:01;;;;;;;20.10;1.27;;;;;;;;;;4931806;29;20098;-65
2021/10/23 02:33:46;;;;;;;5.75;1.08;;;;;;;;;;4931593;29;20059;-64
2021/10/23 02:36:32;;;;;;;10.18;1.23;;;;;;;;;;4931543;29;20470;-65
2021/10/23 02:39:17;;;;;;;9.68;1.23;;;;;;;;;;4931676;29;20051;-64
2021/10/23 02:42:03;;;;;;;9.23;1.15;;;;;;;;;;4931731;29;20048;-64
2021/10/23 02:44:48;;;;;;;8.25;1.02;;;;;;;;;;4931435;29;20051;-64
2021/10/23 02:47:33;;;;;;;9.73;1.45;;;;;;;;;;4931459;29;20052;-64
2021/10/23 02:50:18;;;;;;;9.55;1.10;;;;;;;;;;4931702;29;20052;-64
2021/10/23 02:53:04;;;;;;;9.23;1.10;;;;;;;;;;4930970;29;20418;-64
2021/10/23 02:55:49;;;;;;;8.82;1.13;;;;;;;;;;4930473;29;20059;-64
2021/10/23 02:58:36;;;;;;;9.70;1.05;;;;;;;;;;4931357;29;20525;-65
2021/10/23 03:01:22;;;;;;;11.05;1.33;;;;;;;;;;4931332;29;20059;-64
2021/10/23 03:04:07;;;;;;;7.82;1.17;;;;;;;;;;4931127;29;20148;-64
2021/10/23 03:06:52;;;;;;;9.70;1.20;;;;;;;;;;4931052;29;20469;-65
2021/10/23 03:09:38;;;;;;;10.05;1.25;;;;;;;;;;4934347;29;20413;-64
2021/10/23 03:12:23;;;;;;;5.70;1.30;;;;;;;;;;4934421;29;20051;-64
2021/10/23 03:15:09;;;;;;;8.32;1.08;;;;;;;;;;4934109;29;20525;-64
2021/10/23 03:17:54;;;;;;;9.73;1.50;;;;;;;;;;4934422;29;20133;-64
2021/10/23 03:20:39;;;;;;;11.63;1.35;;;;;;;;;;4934403;29;20048;-64
2021/10/23 03:23:25;;;;;;;6.30;1.50;;;;;;;;;;4934141;29;20395;-64
2021/10/23 03:26:10;;;;;;;8.65;1.13;;;;;;;;;;4934356;29;20048;-64
2021/10/23 03:28:57;;;;;;;10.15;1.05;;;;;;;;;;4934269;29;20395;-64
2021/10/23 03:31:42;;;;;;;8.65;1.13;;;;;;;;;;4934104;29;20059;-64
2021/10/23 03:34:28;;;;;;;7.20;1.98;;;;;;;;;;4934082;29;20044;-64
2021/10/23 03:37:13;;;;;;;7.82;1.90;;;;;;;;;;4934104;29;20141;-65
2021/10/23 03:39:58;;;;;;;7.05;1.08;;;;;;;;;;4933979;29;20056;-64
2021/10/23 03:42:44;;;;;;;11.32;1.48;;;;;;;;;;4934100;29;20047;-64
2021/10/23 03:45:33;;;;;;;8.65;1.23;;;;;;;;;;4933813;29;20082;-65
2021/10/23 03:48:18;;;;;;;8.85;1.10;;;;;;;;;;4933829;29;20051;-64
2021/10/23 03:51:04;;;;;;;8.48;1.38;;;;;;;;;;4934088;29;20095;-64
2021/10/23 03:53:49;;;;;;;10.90;1.70;;;;;;;;;;4933731;29;20052;-65
2021/10/23 03:56:34;;;;;;;9.68;1.42;;;;;;;;;;4933754;29;20060;-64
2021/10/23 03:59:20;;;;;;;7.45;1.83;;;;;;;;;;4933763;29;20052;-64
2021/10/23 04:02:05;;;;;;;10.98;1.35;;;;;;;;;;4933721;29;20056;-65
2021/10/23 04:04:51;;;;;;;9.80;1.33;;;;;;;;;;4933525;29;20060;-64
2021/10/23 04:07:36;;;;;;;4.88;1.20;;;;;;;;;;4933569;29;20123;-65
2021/10/23 04:10:21;;;;;;;12.38;2.33;;;;;;;;;;4933572;29;20527;-65
2021/10/23 04:13:07;;;;;;;10.63;1.45;;;;;;;;;;4933633;29;20047;-64
2021/10/23 04:15:52;;;;;;;7.60;1.17;;;;;;;;;;4933813;29;20154;-65
2021/10/23 04:18:37;;;;;;;7.25;1.35;;;;;;;;;;4933473;29;20059;-64
2021/10/23 04:21:23;;;;;;;10.73;2.13;;;;;;;;;;4932769;29;20514;-64
2021/10/23 04:24:09;;;;;;;7.97;1.63;;;;;;;;;;4933388;29;20126;-65
2021/10/23 04:26:54;;;;;;;9.63;1.20;;;;;;;;;;4933276;29;20560;-64
2021/10/23 04:29:40;;;;;;;9.32;1.42;;;;;;;;;;4933346;29;20059;-65
2021/10/23 04:32:26;;;;;;;9.00;1.83;;;;;;;;;;4933488;29;20067;-64
2021/10/23 04:35:11;;;;;;;11.52;1.80;;;;;;;;;;4933171;29;20067;-64
2021/10/23 04:37:56;;;;;;;10.80;1.77;;;;;;;;;;4933174;29;20051;-64
2021/10/23 04:40:42;;;;;;;10.93;2.25;;;;;;;;;;4933134;29;20059;-64
2021/10/23 04:43:27;;;;;;;9.90;2.42;;;;;;;;;;4933090;29;20060;-64
2021/10/23 04:46:12;;;;;;;12.93;2.00;;;;;;;;;;4933078;29;20055;-65
2021/10/23 04:48:58;;;;;;;7.40;1.77;;;;;;;;;;4933295;29;20055;-64
2021/10/23 04:51:43;;;;;;;10.48;1.67;;;;;;;;;;4933163;29;20131;-65
2021/10/23 04:54:28;;;;;;;11.05;1.73;;;;;;;;;;4932813;29;20250;-64
2021/10/23 04:57:13;;;;;;;12.68;2.22;;;;;;;;;;4932818;29;20127;-64
2021/10/23 04:59:59;;;;;;;8.00;1.48;;;;;;;;;;4933019;29;20048;-65
2021/10/23 05:02:44;;;;;;;13.48;1.67;;;;;;;;;;4932822;29;20126;-64
2021/10/23 05:05:29;;;;;;;9.23;3.03;;;;;;;;;;4932533;29;20060;-65
2021/10/23 05:08:14;;;;;;;15.18;2.92;;;;;;;;;;4971989;22;20047;-66
2021/10/23 05:11:00;;;;;;;10.13;1.80;;;;;;;;;;4932831;29;20048;-66
2021/10/23 05:13:45;;;;;;;8.63;3.40;;;;;;;;;;4932229;29;20510;-66
2021/10/23 05:16:30;;;;;;;17.20;4.10;;;;;;;;;;4932760;29;20131;-66
2021/10/23 05:19:16;;;;;;;10.25;2.67;;;;;;;;;;4932523;29;20513;-66
2021/10/23 05:22:01;;;;;;;11.25;2.53;;;;;;;;;;4932417;29;20052;-66
2021/10/23 05:24:47;;;;;;;10.57;3.17;;;;;;;;;;4932511;29;20052;-66
2021/10/23 05:27:33;;;;;;;16.02;2.97;;;;;;;;;;4932531;29;20051;-66
2021/10/23 05:30:18;;;;;;;16.10;2.20;;;;;;;;;;4932183;29;20051;-66
2021/10/23 05:33:03;;;;;;;17.23;2.80;;;;;;;;;;4932479;29;20060;-66
2021/10/23 05:35:48;;;;;;;17.55;2.70;;;;;;;;;;4932262;29;20064;-67
2021/10/23 05:38:34;;;;;;;17.50;3.55;;;;;;;;;;4932267;29;20059;-66
2021/10/23 05:41:19;;;;;;;14.77;4.47;;;;;;;;;;4932430;29;20047;-66
2021/10/23 05:44:04;;;;;;;16.95;3.72;;;;;;;;;;4932180;29;20442;-66
2021/10/23 05:46:49;;;;;;;14.20;3.70;;;;;;;;;;4932183;29;20048;-66
2021/10/23 05:49:35;;;;;;;19.00;3.65;;;;;;;;;;4932379;29;20052;-67
2021/10/23 05:52:20;;;;;;;21.85;4.70;;;;;;;;;;4932304;29;20052;-66
2021/10/23 05:55:05;;;;;;;14.50;3.35;;;;;;;;;;4931973;29;20056;-66
2021/10/23 05:57:51;;;;;;;17.48;3.42;;;;;;;;;;4932171;29;20051;-66
2021/10/23 06:00:37;;;;;;;19.85;3.95;;;;;;;;;;4932211;29;20055;-66
2021/10/23 06:03:23;;;;;;;13.07;2.80;;;;;;;;;;4929304;29;20056;-66
2021/10/23 06:06:09;;;;;;;11.50;3.55;;;;;;;;;;4915690;29;20056;-66
2021/10/23 06:08:55;;;;;;;15.60;3.47;;;;;;;;;;4917931;29;20055;-66
2021/10/23 06:11:40;;;;;;;17.08;3.35;;;;;;;;;;4912966;29;20060;-66
2021/10/23 06:14:25;;;;;;;13.57;2.78;;;;;;;;;;4912657;29;20418;-66
2021/10/23 06:17:11;;;;;;;11.27;4.57;;;;;;;;;;4912800;29;20511;-66
2021/10/23 06:19:56;;;;;;;16.33;5.32;;;;;;;;;;4913655;29;20056;-67
2021/10/23 06:22:51;;;;;;;20.20;4.00;;;;;;;;;;4912802;29;20056;-66
2021/10/23 06:25:36;;;;;;;14.57;3.08;;;;;;;;;;4912684;29;20608;-66
2021/10/23 06:28:21;;;;;;;13.50;4.10;;;;;;;;;;4912581;29;20514;-66
2021/10/23 06:31:07;;;;;;;16.70;3.65;;;;;;;;;;4912675;29;20056;-66
2021/10/23 06:33:52;;;;;;;14.15;3.20;;;;;;;;;;4911202;29;20064;-66
2021/10/23 06:36:37;;;;;;;18.98;3.20;;;;;;;;;;4912670;29;20064;-67
2021/10/23 06:39:22;;;;;;;15.07;2.47;;;;;;;;;;4915047;29;20115;-67
2021/10/23 06:42:08;;;;;;;13.00;3.28;;;;;;;;;;4922619;29;20123;-66
2021/10/23 06:44:53;;;;;;;15.00;2.40;;;;;;;;;;4934626;29;20047;-67
2021/10/23 06:47:39;;;;;;;10.07;3.58;;;;;;;;;;4933528;29;20055;-66
2021/10/23 06:50:24;;;;;;;10.80;2.65;;;;;;;;;;4933536;29;20399;-66
2021/10/23 06:53:09;;;;;;;22.30;4.55;;;;;;;;;;4933499;29;20498;-67
2021/10/23 06:55:54;;;;;;;11.48;2.40;;;;;;;;;;4934613;29;20055;-66
2021/10/23 06:58:39;;;;;;;10.13;2.08;;;;;;;;;;4934774;29;20055;-66
2021/10/23 07:01:25;;;;;;;16.75;2.80;;;;;;;;;;4933446;29;20056;-66
2021/10/23 07:04:10;;;;;;;16.75;3.25;;;;;;;;;;4933135;29;20068;-66
2021/10/23 07:06:55;;;;;;;17.33;4.25;;;;;;;;;;4934610;29;20078;-66
2021/10/23 07:09:40;;;;;;;9.95;2.17;;;;;;;;;;4924362;29;20052;-66
2021/10/23 07:12:25;;;;;;;12.25;2.50;;;;;;;;;;4932079;29;20051;-66
2021/10/23 07:15:11;;;;;;;12.50;3.25;;;;;;;;;;4934476;29;20560;-66
2021/10/23 07:17:57;;;;;;;12.75;2.60;;;;;;;;;;4933067;29;20056;-67
2021/10/23 07:20:42;;;;;;;15.38;2.70;;;;;;;;;;4927919;29;20048;-66
2021/10/23 07:23:28;;;;;;;10.45;2.58;;;;;;;;;;4913237;29;20052;-67
2021/10/23 07:26:13;;;;;;;8.23;2.60;;;;;;;;;;4914997;29;20060;-68
2021/10/23 07:28:58;;;;;;;13.32;2.20;;;;;;;;;;4914015;29;20048;-67
2021/10/23 07:31:43;;;;;;;9.98;2.17;;;;;;;;;;4932800;29;20056;-68
2021/10/23 07:34:29;;;;;;;22.58;2.78;;;;;;;;;;4933938;29;20529;-68
2021/10/23 07:37:14;;;;;;;14.57;2.85;;;;;;;;;;4932845;29;20141;-67
2021/10/23 07:40:00;;;;;;;9.57;2.67;;;;;;;;;;4919573;29;20118;-67
2021/10/23 07:42:45;;;;;;;14.93;2.72;;;;;;;;;;4931534;29;20055;-68
2021/10/23 07:45:30;;;;;;;11.57;2.88;;;;;;;;;;4931796;29;20051;-67
2021/10/23 07:48:19;;;;;;;12.70;2.28;;;;;;;;;;4932877;29;20051;-67
2021/10/23 07:51:05;;;;;;;10.77;2.80;;;;;;;;;;4932755;29;20098;-67
2021/10/23 07:53:51;;;;;;;8.75;2.17;;;;;;;;;;4932150;29;20135;-66
2021/10/23 07:56:39;;;;;;;11.88;2.88;;;;;;;;;;4919232;29;20067;-67
2021/10/23 07:59:26;;;;;;;19.05;3.13;;;;;;;;;;4919698;29;20156;-67
2021/10/23 08:02:11;;;;;;;14.35;2.63;;;;;;;;;;4932508;29;20063;-68
2021/10/23 08:04:57;;;;;;;13.30;2.83;;;;;;;;;;4933704;29;20063;-67
2021/10/23 08:07:43;;;;;;;15.43;2.70;;;;;;;;;;4932320;29;20051;-67
2021/10/23 08:10:28;;;;;;;9.68;2.17;;;;;;;;;;4943170;29;20515;-67
2021/10/23 08:13:13;;;;;;;14.15;2.28;;;;;;;;;;4914529;29;20056;-68
2021/10/23 08:15:58;;;;;;;11.43;1.83;;;;;;;;;;4913318;29;20499;-67
2021/10/23 08:18:44;;;;;;;12.60;2.17;;;;;;;;;;4913650;29;20056;-67
2021/10/23 08:21:29;;;;;;;8.93;2.22;;;;;;;;;;4913495;29;20064;-68
2021/10/23 08:24:14;;;;;;;11.98;2.15;;;;;;;;;;4928314;29;20056;-68
2021/10/23 08:27:00;;;;;;;7.20;2.00;;;;;;;;;;4924699;29;20060;-68
2021/10/23 08:29:45;;;;;;;12.65;2.45;;;;;;;;;;4914342;28;20127;-68
2021/10/23 08:32:31;;;;;;;7.63;2.10;;;;;;;;;;4915824;29;20054;-68
2021/10/23 08:35:16;;;;;;;13.27;2.00;;;;;;;;;;4924532;29;20048;-68
2021/10/23 08:38:01;;;;;;;9.57;2.00;;;;;;;;;;4923238;29;20048;-67
2021/10/23 08:40:46;;;;;;;6.82;2.17;;;;;;;;;;4921919;29;20111;-68
2021/10/23 08:43:32;;;;;;;7.97;1.83;;;;;;;;;;4928254;29;20398;-68
2021/10/23 08:46:24;;;;;;;10.00;1.35;;;;;;;;;;4971016;28;20124;-67
2021/10/23 08:49:09;;;;;;;10.68;1.30;;;;;;;;;;4917349;28;20062;-68
2021/10/23 08:51:54;;;;;;;10.27;2.08;;;;;;;;;;4908479;28;20413;-68
2021/10/23 08:54:42;;;;;;;8.52;1.83;;;;;;;;;;4930099;28;20056;-68
2021/10/23 08:57:28;;;;;;;12.82;2.00;;;;;;;;;;4933031;29;20138;-68
2021/10/23 09:00:14;;;;;;;10.07;1.33;;;;;;;;;;4918538;28;20059;-67
2021/10/23 09:02:59;;;;;;;8.65;1.83;;;;;;;;;;4935444;28;20055;-69
2021/10/23 09:05:44;;;;;;;8.95;1.35;;;;;;;;;;4944703;29;20058;-68
2021/10/23 09:08:29;;;;;;;6.57;1.55;;;;;;;;;;4921300;29;20052;-67
2021/10/23 09:11:28;;;;;;;7.57;1.63;;;;;;;;;;4921283;29;20048;-68
2021/10/23 09:14:23;;;;;;;8.45;1.55;;;;;;;;;;4929612;29;20086;-68
2021/10/23 09:17:09;;;;;;;11.27;1.90;;;;;;;;;;4917309;29;20063;-68
2021/10/23 09:19:54;;;;;;;7.28;1.65;;;;;;;;;;4913077;28;20056;-68
2021/10/23 09:22:40;;;;;;;7.13;1.83;;;;;;;;;;4913416;29;20063;-67
2021/10/23 09:25:35;;;;;;;9.20;2.28;;;;;;;;;;4913274;29;20099;-67
2021/10/23 09:28:31;;;;;;;11.57;2.78;;;;;;;;;;4928465;29;20049;-67
2021/10/23 09:31:25;;;;;;;9.45;1.70;;;;;;;;;;4913506;29;20052;-67
2021/10/23 09:34:11;;;;;;;11.93;2.38;;;;;;;;;;4917247;28;20055;-67
2021/10/23 09:36:57;;;;;;;11.90;1.70;;;;;;;;;;4911829;29;20515;-67
2021/10/23 09:39:42;;;;;;;13.00;2.28;;;;;;;;;;4897297;29;20056;-67
2021/10/23 09:42:27;;;;;;;7.85;1.80;;;;;;;;;;4919206;28;20169;-67
2021/10/23 09:45:13;;;;;;;10.02;1.73;;;;;;;;;;4931214;29;20091;-67
2021/10/23 09:48:05;;;;;;;8.82;1.90;;;;;;;;;;4959042;28;20047;-66
2021/10/23 09:50:56;;;;;;;11.18;2.33;;;;;;;;;;4967987;28;20056;-67
2021/10/23 09:53:42;;;;;;;7.22;1.67;;;;;;;;;;4945503;28;20562;-67
2021/10/23 09:56:29;;;;;;;7.47;1.85;;;;;;;;;;4931118;29;20087;-68
2021/10/23 09:59:14;;;;;;;7.38;1.52;;;;;;;;;;4931347;29;20418;-67
2021/10/23 10:02:00;;;;;;;6.35;1.40;;;;;;;;;;4917403;28;20066;-67
2021/10/23 10:04:45;;;;;;;6.68;1.50;;;;;;;;;;4931788;29;20064;-67
2021/10/23 10:07:30;;;;;;;7.57;1.83;;;;;;;;;;4931489;29;20578;-67
2021/10/23 10:10:16;;;;;;;7.20;1.83;;;;;;;;;;4931959;29;20131;-67
2021/10/23 10:13:01;;;;;;;6.03;1.70;;;;;;;;;;4930466;28;20052;-67
2021/10/23 10:15:50;;;;;;;8.50;1.70;;;;;;;;;;4931610;28;20110;-67
2021/10/23 10:18:35;;;;;;;10.18;2.53;;;;;;;;;;4935155;28;20052;-68
2021/10/23 10:21:21;;;;;;;9.77;1.63;;;;;;;;;;4934441;29;20051;-67
2021/10/23 10:24:19;;;;;;;7.25;1.55;;;;;;;;;;4934940;28;20052;-67
2021/10/23 10:27:07;;;;;;;8.98;1.98;;;;;;;;;;4935205;28;20506;-67
2021/10/23 10:29:54;;;;;;;10.38;3.15;;;;;;;;;;4927247;29;20130;-68
2021/10/23 10:32:41;;;;;;;7.82;2.05;;;;;;;;;;4927755;29;20414;-67
2021/10/23 10:36:37;;;;;;;9.25;1.92;;;;;;;;;;4934357;29;20098;-66
2021/10/23 10:38:57;;;;;;;8.02;2.33;;;;;;;;;;4930297;29;20507;-66
2021/10/23 10:45:23;;;;;;;9.43;1.80;;;;;;;;;;4933744;29;20433;-67
2021/10/23 10:48:08;;;;;;;8.20;1.38;;;;;;;;;;4934891;29;20064;-65
2021/10/23 10:50:53;;;;;;;8.65;1.77;;;;;;;;;;4933502;29;20064;-65
2021/10/23 10:53:42;;;;;;;9.70;2.00;;;;;;;;;;4933764;29;20056;-67
2021/10/23 10:56:27;;;;;;;9.15;1.42;;;;;;;;;;4934782;29;20052;-68
2021/10/23 10:59:12;;;;;;;6.72;1.92;;;;;;;;;;4933792;29;20059;-66
2021/10/23 11:02:09;;;;;;;9.77;2.55;;;;;;;;;;4934640;29;20048;-66
2021/10/23 11:05:13;;;;;;;6.97;1.70;;;;;;;;;;4934486;29;20444;-66
2021/10/23 11:08:02;;;;;;;9.18;2.10;;;;;;;;;;4976888;23;20054;-61
2021/10/23 11:11:05;;;;;;;12.27;2.42;;;;;;;;;;4994597;28;20050;-62
2021/10/23 11:13:50;;;;;;;7.75;1.60;;;;;;;;;;4995179;28;20058;-63
2021/10/23 11:16:37;;;;;;;10.38;1.92;;;;;;;;;;4994670;28;20062;-63
2021/10/23 11:19:35;;;;;;;9.52;2.20;;;;;;;;;;4975878;28;20505;-63
2021/10/23 11:22:39;;;;;;;4.97;1.58;;;;;;;;;;4975674;28;20050;-62
2021/10/23 11:25:25;;;;;;;10.68;1.80;;;;;;;;;;4975900;28;20095;-62
2021/10/23 11:28:11;;;;;;;11.68;2.22;;;;;;;;;;4975538;28;20051;-62
2021/10/23 11:30:56;;;;;;;5.70;2.03;;;;;;;;;;4975730;28;20093;-61
2021/10/23 11:33:41;;;;;;;9.90;2.00;;;;;;;;;;4975671;28;20055;-64
2021/10/23 11:36:26;;;;;;;13.30;2.28;;;;;;;;;;4975745;28;20059;-62
2021/10/23 11:39:19;;;;;;;7.65;2.20;;;;;;;;;;4974612;28;20050;-64
2021/10/23 11:42:23;;;;;;;11.05;2.00;;;;;;;;;;4975862;28;20564;-62
2021/10/23 11:45:13;;;;;;;6.55;1.80;;;;;;;;;;4975389;28;20054;-61
2021/10/23 11:47:59;;;;;;;7.03;1.55;;;;;;;;;;4975582;28;20046;-62
2021/10/23 11:50:45;;;;;;;8.02;1.80;;;;;;;;;;4975431;28;20125;-62
2021/10/23 11:53:30;;;;;;;11.73;2.15;;;;;;;;;;4975140;28;20050;-63
2021/10/23 11:56:16;;;;;;;6.50;1.90;;;;;;;;;;4975759;28;20059;-64
2021/10/23 11:59:01;;;;;;;7.07;1.45;;;;;;;;;;4975494;28;20051;-61
2021/10/23 12:01:50;;;;;;;8.27;1.45;;;;;;;;;;4974460;28;20050;-65
2021/10/23 12:04:35;;;;;;;4.43;1.27;;;;;;;;;;4977439;28;20055;-65
2021/10/23 12:07:34;;;;;;;12.43;1.50;;;;;;;;;;4978716;28;20055;-65
2021/10/23 12:10:19;;;;;;;9.63;2.28;;;;;;;;;;4978996;28;20078;-65
2021/10/23 12:13:14;;;;;;;7.28;1.80;;;;;;;;;;4978644;28;20130;-64
2021/10/23 12:16:09;;;;;;;10.23;1.60;;;;;;;;;;4977831;28;20125;-65
2021/10/23 12:18:59;;;;;;;13.52;1.80;;;;;;;;;;4978142;28;20121;-65
2021/10/23 12:21:45;;;;;;;8.40;2.08;;;;;;;;;;4978366;28;20055;-63
2021/10/23 12:24:31;;;;;;;7.85;1.83;;;;;;;;;;4977082;28;20047;-64
2021/10/23 12:27:23;;;;;;;8.85;1.42;;;;;;;;;;4977731;28;20055;-64
2021/10/23 12:30:13;;;;;;;7.30;1.85;;;;;;;;;;4977968;28;20066;-64
2021/10/23 12:33:01;;;;;;;7.05;1.45;;;;;;;;;;4974562;28;20086;-63
2021/10/23 12:35:47;;;;;;;8.05;1.50;;;;;;;;;;4974517;28;20130;-63
2021/10/23 12:38:32;;;;;;;5.72;1.60;;;;;;;;;;4974624;28;20051;-63
2021/10/23 12:41:18;;;;;;;12.05;1.60;;;;;;;;;;4975724;28;20059;-64
2021/10/23 12:44:03;;;;;;;9.73;1.85;;;;;;;;;;4977590;28;20051;-64
2021/10/23 12:46:48;;;;;;;7.40;1.20;;;;;;;;;;4977631;28;20050;-63
2021/10/23 12:49:34;;;;;;;6.68;1.27;;;;;;;;;;4977431;28;20050;-65
2021/10/23 12:52:19;;;;;;;6.32;1.63;;;;;;;;;;4977478;28;20051;-65
2021/10/23 12:55:05;;;;;;;6.75;1.25;;;;;;;;;;4977840;28;20055;-65
2021/10/23 12:57:51;;;;;;;5.40;1.30;;;;;;;;;;4975832;28;20509;-65
2021/10/23 13:00:38;;;;;;;8.65;1.90;;;;;;;;;;4976114;28;20074;-64
2021/10/23 13:03:30;;;;;;;4.35;0.90;;;;;;;;;;5132577;27;20792;-62
2021/10/23 13:06:15;;;;;;;8.00;1.20;;;;;;;;;;5133845;27;20047;-63
2021/10/23 13:09:01;;;;;;;9.45;1.00;;;;;;;;;;5133100;27;20047;-63
2021/10/23 13:11:46;;;;;;;9.90;1.48;;;;;;;;;;5132434;27;20122;-63
2021/10/23 13:14:31;;;;;;;4.55;1.13;;;;;;;;;;5132154;27;20149;-62
2021/10/23 13:17:17;;;;;;;5.45;0.68;;;;;;;;;;5131772;27;20477;-64
2021/10/23 13:20:02;;;;;;;7.40;0.80;;;;;;;;;;5131752;27;20424;-63
2021/10/23 13:22:47;;;;;;;5.75;1.10;;;;;;;;;;5131925;27;20047;-64
2021/10/23 13:25:33;;;;;;;4.93;1.33;;;;;;;;;;5129897;27;20095;-62
2021/10/23 13:28:18;;;;;;;7.70;1.10;;;;;;;;;;5130193;27;20043;-62
2021/10/23 13:31:03;;;;;;;10.90;3.47;;;;;;;;;;5130217;27;20126;-62
2021/10/23 13:33:49;;;;;;;4.07;0.90;;;;;;;;;;5129673;27;20047;-62
2021/10/23 13:36:34;;;;;;;6.90;1.00;;;;;;;;;;5130081;27;20412;-62
2021/10/23 13:39:19;;;;;;;11.43;1.02;;;;;;;;;;5129607;27;20051;-63
2021/10/23 13:42:05;;;;;;;6.78;1.33;;;;;;;;;;5128994;27;20047;-64
2021/10/23 13:44:51;;;;;;;5.05;0.90;;;;;;;;;;5129599;27;20047;-65
2021/10/23 13:47:36;;;;;;;7.68;1.17;;;;;;;;;;5129695;27;20051;-64
2021/10/23 13:50:22;;;;;;;7.20;1.20;;;;;;;;;;5129393;27;20075;-63
2021/10/23 13:53:07;;;;;;;6.60;1.25;;;;;;;;;;5129516;27;20449;-63
2021/10/23 13:55:52;;;;;;;8.52;1.25;;;;;;;;;;5129542;27;20051;-64
2021/10/23 13:58:38;;;;;;;8.65;1.27;;;;;;;;;;5129453;27;20047;-64
2021/10/23 14:01:24;;;;;;;8.07;0.98;;;;;;;;;;5129356;27;20056;-63
2021/10/23 14:04:10;;;;;;;6.72;1.23;;;;;;;;;;5125703;28;20398;-64
2021/10/23 14:06:55;;;;;;;6.88;1.73;;;;;;;;;;5119635;28;20052;-64
2021/10/23 14:09:41;;;;;;;8.43;1.33;;;;;;;;;;5117842;28;20445;-64
2021/10/23 14:12:26;;;;;;;9.02;1.38;;;;;;;;;;5118314;28;20505;-63
2021/10/23 14:15:11;;;;;;;8.55;1.25;;;;;;;;;;5104924;28;20417;-64
2021/10/23 14:17:57;;;;;;;6.10;0.80;;;;;;;;;;5105844;28;20040;-64
2021/10/23 14:20:42;;;;;;;8.40;1.30;;;;;;;;;;5113020;28;20059;-64
2021/10/23 14:23:28;;;;;;;7.88;1.40;;;;;;;;;;5115000;28;20047;-64
2021/10/23 14:26:14;;;;;;;10.93;1.40;;;;;;;;;;5109048;28;20048;-64
2021/10/23 14:28:59;;;;;;;5.07;0.80;;;;;;;;;;5105690;28;20043;-64
2021/10/23 14:31:44;;;;;;;10.30;1.25;;;;;;;;;;5104299;28;20446;-64
2021/10/23 14:34:30;;;;;;;7.90;1.58;;;;;;;;;;5104749;28;20498;-64
2021/10/23 14:37:15;;;;;;;5.93;0.88;;;;;;;;;;5114350;28;20052;-64
2021/10/23 14:40:00;;;;;;;5.15;1.10;;;;;;;;;;5114942;28;20513;-64
2021/10/23 14:42:45;;;;;;;4.38;1.10;;;;;;;;;;5115108;28;20427;-64
2021/10/23 14:45:31;;;;;;;7.80;0.90;;;;;;;;;;5114761;28;20114;-64
2021/10/23 14:48:16;;;;;;;9.20;1.40;;;;;;;;;;5114793;28;20044;-63
2021/10/23 14:51:02;;;;;;;10.95;1.20;;;;;;;;;;5114839;28;20055;-64
2021/10/23 14:53:47;;;;;;;7.32;1.00;;;;;;;;;;5114635;28;20052;-64
2021/10/23 14:56:32;;;;;;;7.95;1.08;;;;;;;;;;5112023;28;20051;-64
2021/10/23 14:59:17;;;;;;;7.18;0.85;;;;;;;;;;5113598;28;20055;-63
2021/10/23 15:02:02;;;;;;;4.75;0.82;;;;;;;;;;5114116;28;20047;-64
2021/10/23 15:04:48;;;;;;;9.50;1.80;;;;;;;;;;5110909;28;20047;-64
2021/10/23 15:07:33;;;;;;;7.03;1.15;;;;;;;;;;5113615;28;20417;-63
2021/10/23 15:10:18;;;;;;;7.43;0.90;;;;;;;;;;5114557;28;20047;-64
2021/10/23 15:13:04;;;;;;;9.90;1.40;;;;;;;;;;5114060;28;20051;-65
2021/10/23 15:15:49;;;;;;;4.63;1.10;;;;;;;;;;5098376;28;20044;-63
2021/10/23 15:18:34;;;;;;;4.88;1.05;;;;;;;;;;5091989;28;20052;-65
2021/10/23 15:21:20;;;;;;;11.00;2.08;;;;;;;;;;5103389;28;20314;-65
2021/10/23 15:24:05;;;;;;;5.25;1.27;;;;;;;;;;5104064;28;20043;-66
2021/10/23 15:26:50;;;;;;;6.82;1.38;;;;;;;;;;5103062;28;20090;-66
2021/10/23 15:29:36;;;;;;;11.23;2.20;;;;;;;;;;5104109;28;20501;-66
2021/10/23 15:32:21;;;;;;;7.13;1.27;;;;;;;;;;5104334;28;20123;-65
2021/10/23 15:35:07;;;;;;;5.50;1.08;;;;;;;;;;5098628;28;20052;-65
2021/10/23 15:37:52;;;;;;;8.00;1.70;;;;;;;;;;5093394;28;20542;-66
2021/10/23 15:40:51;;;;;;;4.43;1.13;;;;;;;;;;5093307;28;20048;-65
2021/10/23 15:43:36;;;;;;;8.93;2.33;;;;;;;;;;5093088;28;20056;-65
2021/10/23 15:46:21;;;;;;;8.73;1.55;;;;;;;;;;5093298;28;20115;-66
2021/10/23 15:49:07;;;;;;;5.72;1.88;;;;;;;;;;5093127;28;20052;-65
2021/10/23 15:51:52;;;;;;;10.02;1.88;;;;;;;;;;5093302;28;20047;-64
2021/10/23 15:54:38;;;;;;;7.18;1.58;;;;;;;;;;5092926;28;20048;-65
2021/10/23 15:57:23;;;;;;;6.38;1.60;;;;;;;;;;5092849;28;20056;-65
2021/10/23 16:00:09;;;;;;;7.43;1.35;;;;;;;;;;5092931;28;20501;-64
2021/10/23 16:03:00;;;;;;;7.00;1.63;;;;;;;;;;5092780;28;20468;-64
2021/10/23 16:05:46;;;;;;;9.23;2.15;;;;;;;;;;5092619;28;20044;-65
2021/10/23 16:08:31;;;;;;;7.50;1.67;;;;;;;;;;5092914;28;20044;-65
2021/10/23 16:11:16;;;;;;;13.10;2.55;;;;;;;;;;5092796;28;20565;-65
2021/10/23 16:14:02;;;;;;;6.72;1.25;;;;;;;;;;5091798;28;20056;-66
2021/10/23 16:16:47;;;;;;;6.47;1.77;;;;;;;;;;5092345;28;20119;-64
2021/10/23 16:19:32;;;;;;;8.75;2.08;;;;;;;;;;5092901;28;20056;-66
2021/10/23 16:22:19;;;;;;;7.57;1.77;;;;;;;;;;5093069;28;20123;-66
2021/10/23 16:25:04;;;;;;;9.93;2.38;;;;;;;;;;5092852;28;20056;-66
2021/10/23 16:27:50;;;;;;;13.07;2.20;;;;;;;;;;5092438;28;20458;-65
2021/10/23 16:30:35;;;;;;;8.57;1.77;;;;;;;;;;5090604;28;20592;-65
2021/10/23 16:33:20;;;;;;;9.10;2.35;;;;;;;;;;5091783;28;20055;-67
2021/10/23 16:36:05;;;;;;;6.70;2.25;;;;;;;;;;5092104;28;20728;-67